sensor_id;sensor_type;location;lat;lon;timestamp;temperature;humidity
10678;DHT22;5387;48.722;9.110;2023-02-22T00:00:29;4.70;99.90
10678;DHT22;5387;48.722;9.110;2023-02-22T00:03:09;4.70;99.90
10678;DHT22;5387;48.722;9.110;2023-02-22T00:05:37;4.80;99.90
10678;DHT22;5387;48.722;9.110;2023-02-22T00:08:05;4.70;99.90
10678;DHT22;5387;48.722;9.110;2023-02-22T00:10:35;4.60;99.90
10678;DHT22;5387;48.722;9.110;2023-02-22T00:13:05;4.60;99.90
10678;DHT22;5387;48.722;9.110;2023-02-22T00:15:32;4.50;99.90
10678;DHT22;5387;48.722;9.110;2023-02-22T00:18:00;4.50;99.90
10678;DHT22;5387;48.722;9.110;2023-02-22T00:20:27;4.40;99.90
10678;DHT22;5387;48.722;9.110;2023-02-22T00:22:54;4.60;99.90
10678;DHT22;5387;48.722;9.110;2023-02-22T00:25:22;4.40;99.90
10678;DHT22;5387;48.722;9.110;2023-02-22T00:27:51;4.40;99.90
10678;DHT22;5387;48.722;9.110;2023-02-22T00:30:20;4.40;99.90
10678;DHT22;5387;48.722;9.110;2023-02-22T00:32:48;4.30;99.90
10678;DHT22;5387;48.722;9.110;2023-02-22T00:35:17;4.30;99.90
10678;DHT22;5387;48.722;9.110;2023-02-22T00:37:47;4.30;99.90
10678;DHT22;5387;48.722;9.110;2023-02-22T00:40:15;4.30;99.90
10678;DHT22;5387;48.722;9.110;2023-02-22T00:42:43;4.30;99.90
10678;DHT22;5387;48.722;9.110;2023-02-22T00:45:12;4.30;99.90
10678;DHT22;5387;48.722;9.110;2023-02-22T00:47:39;4.20;99.90
10678;DHT22;5387;48.722;9.110;2023-02-22T00:50:07;4.20;99.90
10678;DHT22;5387;48.722;9.110;2023-02-22T00:52:34;4.20;99.90
10678;DHT22;5387;48.722;9.110;2023-02-22T00:55:01;4.10;99.90
10678;DHT22;5387;48.722;9.110;2023-02-22T00:57:30;4.10;99.90
10678;DHT22;5387;48.722;9.110;2023-02-22T00:59:59;4.10;99.90
10678;DHT22;5387;48.722;9.110;2023-02-22T01:02:37;4.30;99.90
10678;DHT22;5387;48.722;9.110;2023-02-22T01:05:05;4.00;99.90
10678;DHT22;5387;48.722;9.110;2023-02-22T01:07:32;3.90;99.90
10678;DHT22;5387;48.722;9.110;2023-02-22T01:10:00;3.90;99.90
10678;DHT22;5387;48.722;9.110;2023-02-22T01:12:27;4.00;99.90
10678;DHT22;5387;48.722;9.110;2023-02-22T01:14:54;4.00;99.90
10678;DHT22;5387;48.722;9.110;2023-02-22T01:17:22;3.90;99.90
10678;DHT22;5387;48.722;9.110;2023-02-22T01:19:51;3.90;99.90
10678;DHT22;5387;48.722;9.110;2023-02-22T01:22:18;3.90;99.90
10678;DHT22;5387;48.722;9.110;2023-02-22T01:24:45;3.80;99.90
10678;DHT22;5387;48.722;9.110;2023-02-22T01:27:13;3.80;99.90
10678;DHT22;5387;48.722;9.110;2023-02-22T01:29:39;3.80;99.90
10678;DHT22;5387;48.722;9.110;2023-02-22T01:32:06;3.70;99.90
10678;DHT22;5387;48.722;9.110;2023-02-22T01:34:33;3.70;99.90
10678;DHT22;5387;48.722;9.110;2023-02-22T01:37:01;3.70;99.90
10678;DHT22;5387;48.722;9.110;2023-02-22T01:39:28;3.70;99.90
10678;DHT22;5387;48.722;9.110;2023-02-22T01:41:55;3.60;99.90
10678;DHT22;5387;48.722;9.110;2023-02-22T01:44:27;3.70;99.90
10678;DHT22;5387;48.722;9.110;2023-02-22T01:46:54;3.60;99.90
10678;DHT22;5387;48.722;9.110;2023-02-22T01:49:22;3.70;99.90
10678;DHT22;5387;48.722;9.110;2023-02-22T01:51:52;3.70;99.90
10678;DHT22;5387;48.722;9.110;2023-02-22T01:54:25;3.70;99.90
10678;DHT22;5387;48.722;9.110;2023-02-22T01:56:58;3.70;99.90
10678;DHT22;5387;48.722;9.110;2023-02-22T01:59:28;3.60;99.90
10678;DHT22;5387;48.722;9.110;2023-02-22T02:01:58;3.70;99.90
10678;DHT22;5387;48.722;9.110;2023-02-22T02:04:25;3.60;99.90
10678;DHT22;5387;48.722;9.110;2023-02-22T02:06:54;3.50;99.90
10678;DHT22;5387;48.722;9.110;2023-02-22T02:09:29;3.60;99.90
10678;DHT22;5387;48.722;9.110;2023-02-22T02:11:58;3.50;99.90
10678;DHT22;5387;48.722;9.110;2023-02-22T02:14:27;3.60;99.90
10678;DHT22;5387;48.722;9.110;2023-02-22T02:16:56;3.60;99.90
10678;DHT22;5387;48.722;9.110;2023-02-22T02:19:33;3.60;99.90
10678;DHT22;5387;48.722;9.110;2023-02-22T02:22:12;3.60;99.90
10678;DHT22;5387;48.722;9.110;2023-02-22T02:25:12;3.60;99.90
10678;DHT22;5387;48.722;9.110;2023-02-22T02:28:00;3.70;99.90
10678;DHT22;5387;48.722;9.110;2023-02-22T02:30:46;3.60;99.90
10678;DHT22;5387;48.722;9.110;2023-02-22T02:33:18;3.70;99.90
10678;DHT22;5387;48.722;9.110;2023-02-22T02:35:50;3.70;99.90
10678;DHT22;5387;48.722;9.110;2023-02-22T02:38:29;3.70;99.90
10678;DHT22;5387;48.722;9.110;2023-02-22T02:41:04;3.60;99.90
10678;DHT22;5387;48.722;9.110;2023-02-22T02:43:37;3.50;99.90
10678;DHT22;5387;48.722;9.110;2023-02-22T02:46:07;3.50;99.90
10678;DHT22;5387;48.722;9.110;2023-02-22T02:48:41;3.50;99.90
10678;DHT22;5387;48.722;9.110;2023-02-22T02:51:10;3.50;99.90
10678;DHT22;5387;48.722;9.110;2023-02-22T02:53:42;3.50;99.90
10678;DHT22;5387;48.722;9.110;2023-02-22T02:56:10;3.50;99.90
10678;DHT22;5387;48.722;9.110;2023-02-22T02:58:44;3.40;99.90
10678;DHT22;5387;48.722;9.110;2023-02-22T03:01:21;3.40;99.90
10678;DHT22;5387;48.722;9.110;2023-02-22T03:04:10;3.30;99.90
10678;DHT22;5387;48.722;9.110;2023-02-22T03:06:58;3.40;99.90
10678;DHT22;5387;48.722;9.110;2023-02-22T03:09:37;3.50;99.90
10678;DHT22;5387;48.722;9.110;2023-02-22T03:12:16;3.40;99.90
10678;DHT22;5387;48.722;9.110;2023-02-22T03:14:52;3.40;99.90
10678;DHT22;5387;48.722;9.110;2023-02-22T03:17:24;3.30;99.90
10678;DHT22;5387;48.722;9.110;2023-02-22T03:19:59;3.40;99.90
10678;DHT22;5387;48.722;9.110;2023-02-22T03:22:32;3.40;99.90
10678;DHT22;5387;48.722;9.110;2023-02-22T03:25:06;3.30;99.90
10678;DHT22;5387;48.722;9.110;2023-02-22T03:27:37;3.30;99.90
10678;DHT22;5387;48.722;9.110;2023-02-22T03:30:13;3.40;99.90
10678;DHT22;5387;48.722;9.110;2023-02-22T03:32:44;3.30;99.90
10678;DHT22;5387;48.722;9.110;2023-02-22T03:35:36;3.30;99.90
10678;DHT22;5387;48.722;9.110;2023-02-22T03:38:06;3.30;99.90
10678;DHT22;5387;48.722;9.110;2023-02-22T03:40:38;3.30;99.90
10678;DHT22;5387;48.722;9.110;2023-02-22T03:43:10;3.30;99.90
10678;DHT22;5387;48.722;9.110;2023-02-22T03:45:39;3.30;99.90
10678;DHT22;5387;48.722;9.110;2023-02-22T03:48:13;3.30;99.90
10678;DHT22;5387;48.722;9.110;2023-02-22T03:50:43;3.20;99.90
10678;DHT22;5387;48.722;9.110;2023-02-22T03:53:10;3.20;99.90
10678;DHT22;5387;48.722;9.110;2023-02-22T03:55:37;3.10;99.90
10678;DHT22;5387;48.722;9.110;2023-02-22T03:58:07;3.10;99.90
10678;DHT22;5387;48.722;9.110;2023-02-22T04:00:35;3.00;99.90
10678;DHT22;5387;48.722;9.110;2023-02-22T04:03:02;3.00;99.90
10678;DHT22;5387;48.722;9.110;2023-02-22T04:05:29;3.00;99.90
10678;DHT22;5387;48.722;9.110;2023-02-22T04:07:57;3.00;99.90
10678;DHT22;5387;48.722;9.110;2023-02-22T04:10:24;3.00;99.90
10678;DHT22;5387;48.722;9.110;2023-02-22T04:12:51;3.10;99.90
10678;DHT22;5387;48.722;9.110;2023-02-22T04:15:20;3.20;99.90
10678;DHT22;5387;48.722;9.110;2023-02-22T04:17:47;3.20;99.90
10678;DHT22;5387;48.722;9.110;2023-02-22T04:20:14;3.20;99.90
10678;DHT22;5387;48.722;9.110;2023-02-22T04:22:44;3.20;99.90
10678;DHT22;5387;48.722;9.110;2023-02-22T04:25:13;3.20;99.90
10678;DHT22;5387;48.722;9.110;2023-02-22T04:27:40;3.20;99.90
10678;DHT22;5387;48.722;9.110;2023-02-22T04:30:08;3.20;99.90
10678;DHT22;5387;48.722;9.110;2023-02-22T04:32:35;3.10;99.90
10678;DHT22;5387;48.722;9.110;2023-02-22T04:35:02;3.10;99.90
10678;DHT22;5387;48.722;9.110;2023-02-22T04:37:29;3.10;99.90
10678;DHT22;5387;48.722;9.110;2023-02-22T04:39:59;3.20;99.90
10678;DHT22;5387;48.722;9.110;2023-02-22T04:42:27;3.10;99.90
10678;DHT22;5387;48.722;9.110;2023-02-22T04:44:54;3.00;99.90
10678;DHT22;5387;48.722;9.110;2023-02-22T04:47:20;2.90;99.90
10678;DHT22;5387;48.722;9.110;2023-02-22T04:49:47;2.80;99.90
10678;DHT22;5387;48.722;9.110;2023-02-22T04:52:14;2.80;99.90
10678;DHT22;5387;48.722;9.110;2023-02-22T04:54:41;2.70;99.90
10678;DHT22;5387;48.722;9.110;2023-02-22T04:57:08;2.70;99.90
10678;DHT22;5387;48.722;9.110;2023-02-22T04:59:36;2.70;99.90
10678;DHT22;5387;48.722;9.110;2023-02-22T05:02:03;2.50;99.90
10678;DHT22;5387;48.722;9.110;2023-02-22T05:04:30;2.50;99.90
10678;DHT22;5387;48.722;9.110;2023-02-22T05:06:57;2.50;99.90
10678;DHT22;5387;48.722;9.110;2023-02-22T05:09:24;2.50;99.90
10678;DHT22;5387;48.722;9.110;2023-02-22T05:11:50;2.50;99.90
10678;DHT22;5387;48.722;9.110;2023-02-22T05:14:17;2.60;99.90
10678;DHT22;5387;48.722;9.110;2023-02-22T05:16:47;2.60;99.90
10678;DHT22;5387;48.722;9.110;2023-02-22T05:19:14;2.60;99.90
10678;DHT22;5387;48.722;9.110;2023-02-22T05:21:41;2.60;99.90
10678;DHT22;5387;48.722;9.110;2023-02-22T05:24:07;2.70;99.90
10678;DHT22;5387;48.722;9.110;2023-02-22T05:26:34;2.70;99.90
10678;DHT22;5387;48.722;9.110;2023-02-22T05:29:01;2.70;99.90
10678;DHT22;5387;48.722;9.110;2023-02-22T05:31:28;2.70;99.90
10678;DHT22;5387;48.722;9.110;2023-02-22T05:33:56;2.80;99.90
10678;DHT22;5387;48.722;9.110;2023-02-22T05:36:23;2.80;99.90
10678;DHT22;5387;48.722;9.110;2023-02-22T05:38:50;2.80;99.90
10678;DHT22;5387;48.722;9.110;2023-02-22T05:41:17;2.70;99.90
10678;DHT22;5387;48.722;9.110;2023-02-22T05:43:44;2.70;99.90
10678;DHT22;5387;48.722;9.110;2023-02-22T05:46:10;2.70;99.90
10678;DHT22;5387;48.722;9.110;2023-02-22T05:48:37;2.70;99.90
10678;DHT22;5387;48.722;9.110;2023-02-22T05:51:06;2.70;99.90
10678;DHT22;5387;48.722;9.110;2023-02-22T05:53:34;2.70;99.90
10678;DHT22;5387;48.722;9.110;2023-02-22T05:56:01;2.70;99.90
10678;DHT22;5387;48.722;9.110;2023-02-22T05:58:28;2.70;99.90
10678;DHT22;5387;48.722;9.110;2023-02-22T06:00:54;2.80;99.90
10678;DHT22;5387;48.722;9.110;2023-02-22T06:03:21;2.80;99.90
10678;DHT22;5387;48.722;9.110;2023-02-22T06:05:48;2.80;99.90
10678;DHT22;5387;48.722;9.110;2023-02-22T06:08:16;2.90;99.90
10678;DHT22;5387;48.722;9.110;2023-02-22T06:10:43;2.90;99.90
10678;DHT22;5387;48.722;9.110;2023-02-22T06:13:10;2.90;99.90
10678;DHT22;5387;48.722;9.110;2023-02-22T06:15:37;2.80;99.90
10678;DHT22;5387;48.722;9.110;2023-02-22T06:18:03;2.80;99.90
10678;DHT22;5387;48.722;9.110;2023-02-22T06:20:30;2.70;99.90
10678;DHT22;5387;48.722;9.110;2023-02-22T06:22:57;2.80;99.90
10678;DHT22;5387;48.722;9.110;2023-02-22T06:25:27;2.90;99.90
10678;DHT22;5387;48.722;9.110;2023-02-22T06:27:55;2.90;99.90
10678;DHT22;5387;48.722;9.110;2023-02-22T06:30:24;3.00;99.90
10678;DHT22;5387;48.722;9.110;2023-02-22T06:32:51;3.10;99.90
10678;DHT22;5387;48.722;9.110;2023-02-22T06:35:18;3.20;99.90
10678;DHT22;5387;48.722;9.110;2023-02-22T06:37:44;3.30;99.90
10678;DHT22;5387;48.722;9.110;2023-02-22T06:40:12;3.30;99.90
10678;DHT22;5387;48.722;9.110;2023-02-22T06:42:41;3.40;99.90
10678;DHT22;5387;48.722;9.110;2023-02-22T06:45:08;3.60;99.90
10678;DHT22;5387;48.722;9.110;2023-02-22T06:47:37;3.60;99.90
10678;DHT22;5387;48.722;9.110;2023-02-22T06:50:05;3.70;99.90
10678;DHT22;5387;48.722;9.110;2023-02-22T06:52:32;3.70;99.90
10678;DHT22;5387;48.722;9.110;2023-02-22T06:54:59;3.70;99.90
10678;DHT22;5387;48.722;9.110;2023-02-22T06:57:25;3.90;99.90
10678;DHT22;5387;48.722;9.110;2023-02-22T06:59:53;3.70;99.90
10678;DHT22;5387;48.722;9.110;2023-02-22T07:02:20;3.80;99.90
10678;DHT22;5387;48.722;9.110;2023-02-22T07:04:47;3.80;99.90
10678;DHT22;5387;48.722;9.110;2023-02-22T07:07:14;3.90;99.90
10678;DHT22;5387;48.722;9.110;2023-02-22T07:09:40;4.00;99.90
10678;DHT22;5387;48.722;9.110;2023-02-22T07:12:07;4.30;99.90
10678;DHT22;5387;48.722;9.110;2023-02-22T07:14:34;4.30;99.90
10678;DHT22;5387;48.722;9.110;2023-02-22T07:17:03;4.40;99.90
10678;DHT22;5387;48.722;9.110;2023-02-22T07:19:32;4.60;99.90
10678;DHT22;5387;48.722;9.110;2023-02-22T07:21:58;4.70;99.90
10678;DHT22;5387;48.722;9.110;2023-02-22T07:24:25;4.70;99.90
10678;DHT22;5387;48.722;9.110;2023-02-22T07:26:52;4.90;99.90
10678;DHT22;5387;48.722;9.110;2023-02-22T07:29:19;5.10;99.90
10678;DHT22;5387;48.722;9.110;2023-02-22T07:31:47;5.40;99.90
10678;DHT22;5387;48.722;9.110;2023-02-22T07:34:15;5.40;99.90
10678;DHT22;5387;48.722;9.110;2023-02-22T07:36:42;5.40;99.90
10678;DHT22;5387;48.722;9.110;2023-02-22T07:39:08;5.70;99.90
10678;DHT22;5387;48.722;9.110;2023-02-22T07:41:35;5.90;99.90
10678;DHT22;5387;48.722;9.110;2023-02-22T07:44:02;6.10;99.90
10678;DHT22;5387;48.722;9.110;2023-02-22T07:46:29;6.20;99.90
10678;DHT22;5387;48.722;9.110;2023-02-22T07:48:56;6.40;99.90
10678;DHT22;5387;48.722;9.110;2023-02-22T07:51:24;6.40;99.90
10678;DHT22;5387;48.722;9.110;2023-02-22T07:53:51;6.40;99.90
10678;DHT22;5387;48.722;9.110;2023-02-22T07:56:18;6.50;99.90
10678;DHT22;5387;48.722;9.110;2023-02-22T07:58:45;6.80;99.90
10678;DHT22;5387;48.722;9.110;2023-02-22T08:01:11;7.00;99.90
10678;DHT22;5387;48.722;9.110;2023-02-22T08:03:38;7.20;99.90
10678;DHT22;5387;48.722;9.110;2023-02-22T08:06:06;7.40;99.90
10678;DHT22;5387;48.722;9.110;2023-02-22T08:08:34;7.60;99.90
10678;DHT22;5387;48.722;9.110;2023-02-22T08:11:01;7.80;99.90
10678;DHT22;5387;48.722;9.110;2023-02-22T08:13:28;8.20;99.90
10678;DHT22;5387;48.722;9.110;2023-02-22T08:15:55;8.50;99.90
10678;DHT22;5387;48.722;9.110;2023-02-22T08:18:22;8.80;99.90
10678;DHT22;5387;48.722;9.110;2023-02-22T08:20:50;9.00;99.90
10678;DHT22;5387;48.722;9.110;2023-02-22T08:23:20;9.20;99.90
10678;DHT22;5387;48.722;9.110;2023-02-22T08:25:48;9.40;99.90
10678;DHT22;5387;48.722;9.110;2023-02-22T08:28:17;9.50;99.90
10678;DHT22;5387;48.722;9.110;2023-02-22T08:30:46;9.70;99.90
10678;DHT22;5387;48.722;9.110;2023-02-22T08:33:14;9.80;99.90
10678;DHT22;5387;48.722;9.110;2023-02-22T08:35:44;9.90;99.90
10678;DHT22;5387;48.722;9.110;2023-02-22T08:38:15;10.00;99.90
10678;DHT22;5387;48.722;9.110;2023-02-22T08:40:42;10.10;99.90
10678;DHT22;5387;48.722;9.110;2023-02-22T08:43:11;10.30;99.90
10678;DHT22;5387;48.722;9.110;2023-02-22T08:45:38;10.40;99.90
10678;DHT22;5387;48.722;9.110;2023-02-22T08:48:05;10.60;99.90
10678;DHT22;5387;48.722;9.110;2023-02-22T08:50:33;10.80;99.90
10678;DHT22;5387;48.722;9.110;2023-02-22T08:53:01;10.70;99.90
10678;DHT22;5387;48.722;9.110;2023-02-22T08:55:30;10.70;99.90
10678;DHT22;5387;48.722;9.110;2023-02-22T08:57:57;10.90;99.90
10678;DHT22;5387;48.722;9.110;2023-02-22T09:00:28;10.90;99.90
10678;DHT22;5387;48.722;9.110;2023-02-22T09:02:57;11.00;99.90
10678;DHT22;5387;48.722;9.110;2023-02-22T09:05:24;11.20;99.90
10678;DHT22;5387;48.722;9.110;2023-02-22T09:07:51;11.30;99.90
10678;DHT22;5387;48.722;9.110;2023-02-22T09:10:20;11.40;99.90
10678;DHT22;5387;48.722;9.110;2023-02-22T09:12:49;11.40;99.90
10678;DHT22;5387;48.722;9.110;2023-02-22T09:15:16;11.50;99.90
10678;DHT22;5387;48.722;9.110;2023-02-22T09:17:44;11.80;99.90
10678;DHT22;5387;48.722;9.110;2023-02-22T09:20:11;11.90;99.90
10678;DHT22;5387;48.722;9.110;2023-02-22T09:22:38;11.90;99.90
10678;DHT22;5387;48.722;9.110;2023-02-22T09:25:06;11.70;99.90
10678;DHT22;5387;48.722;9.110;2023-02-22T09:27:33;11.60;99.90
10678;DHT22;5387;48.722;9.110;2023-02-22T09:30:00;11.70;99.90
10678;DHT22;5387;48.722;9.110;2023-02-22T09:32:27;11.50;99.90
10678;DHT22;5387;48.722;9.110;2023-02-22T09:34:56;11.90;99.90
10678;DHT22;5387;48.722;9.110;2023-02-22T09:37:23;12.10;99.90
10678;DHT22;5387;48.722;9.110;2023-02-22T09:39:49;12.10;99.90
10678;DHT22;5387;48.722;9.110;2023-02-22T09:42:22;12.00;99.90
10678;DHT22;5387;48.722;9.110;2023-02-22T09:44:57;11.60;99.90
10678;DHT22;5387;48.722;9.110;2023-02-22T09:47:35;11.70;99.90
10678;DHT22;5387;48.722;9.110;2023-02-22T09:50:07;11.50;99.90
10678;DHT22;5387;48.722;9.110;2023-02-22T09:52:46;11.50;99.90
10678;DHT22;5387;48.722;9.110;2023-02-22T09:55:28;11.60;99.90
10678;DHT22;5387;48.722;9.110;2023-02-22T09:58:01;11.80;99.90
10678;DHT22;5387;48.722;9.110;2023-02-22T10:00:31;11.80;99.90
10678;DHT22;5387;48.722;9.110;2023-02-22T10:03:11;11.90;99.90
10678;DHT22;5387;48.722;9.110;2023-02-22T10:05:47;12.10;99.90
10678;DHT22;5387;48.722;9.110;2023-02-22T10:08:18;12.30;99.90
10678;DHT22;5387;48.722;9.110;2023-02-22T10:10:49;12.20;99.90
10678;DHT22;5387;48.722;9.110;2023-02-22T10:13:24;12.40;99.90
10678;DHT22;5387;48.722;9.110;2023-02-22T10:15:58;12.30;99.90
10678;DHT22;5387;48.722;9.110;2023-02-22T10:18:50;12.40;99.90
10678;DHT22;5387;48.722;9.110;2023-02-22T10:21:49;12.30;99.90
10678;DHT22;5387;48.722;9.110;2023-02-22T10:24:27;12.30;99.90
10678;DHT22;5387;48.722;9.110;2023-02-22T10:26:55;12.20;99.90
10678;DHT22;5387;48.722;9.110;2023-02-22T10:29:29;12.40;99.90
10678;DHT22;5387;48.722;9.110;2023-02-22T10:31:58;12.50;99.90
10678;DHT22;5387;48.722;9.110;2023-02-22T10:34:30;12.50;99.90
10678;DHT22;5387;48.722;9.110;2023-02-22T10:37:07;12.70;99.90
10678;DHT22;5387;48.722;9.110;2023-02-22T10:39:40;12.60;99.90
10678;DHT22;5387;48.722;9.110;2023-02-22T10:42:07;12.90;99.90
10678;DHT22;5387;48.722;9.110;2023-02-22T10:44:35;13.00;99.90
10678;DHT22;5387;48.722;9.110;2023-02-22T10:47:05;13.20;99.90
10678;DHT22;5387;48.722;9.110;2023-02-22T10:49:35;13.30;99.90
10678;DHT22;5387;48.722;9.110;2023-02-22T10:52:13;13.30;99.90
10678;DHT22;5387;48.722;9.110;2023-02-22T10:54:41;13.30;99.90
10678;DHT22;5387;48.722;9.110;2023-02-22T10:57:10;13.30;99.90
10678;DHT22;5387;48.722;9.110;2023-02-22T10:59:40;13.20;99.90
10678;DHT22;5387;48.722;9.110;2023-02-22T11:02:17;13.30;99.90
10678;DHT22;5387;48.722;9.110;2023-02-22T11:04:46;13.30;99.90
10678;DHT22;5387;48.722;9.110;2023-02-22T11:07:21;13.20;99.90
10678;DHT22;5387;48.722;9.110;2023-02-22T11:09:51;13.30;99.90
10678;DHT22;5387;48.722;9.110;2023-02-22T11:12:21;13.40;99.90
10678;DHT22;5387;48.722;9.110;2023-02-22T11:14:51;13.60;99.90
10678;DHT22;5387;48.722;9.110;2023-02-22T11:17:27;13.70;99.90
10678;DHT22;5387;48.722;9.110;2023-02-22T11:19:55;13.60;99.90
10678;DHT22;5387;48.722;9.110;2023-02-22T11:22:25;13.60;99.90
10678;DHT22;5387;48.722;9.110;2023-02-22T11:24:57;13.60;99.90
10678;DHT22;5387;48.722;9.110;2023-02-22T11:27:32;13.70;99.90
10678;DHT22;5387;48.722;9.110;2023-02-22T11:30:19;13.90;99.90
10678;DHT22;5387;48.722;9.110;2023-02-22T11:32:49;14.40;99.90
10678;DHT22;5387;48.722;9.110;2023-02-22T11:35:19;14.60;99.90
10678;DHT22;5387;48.722;9.110;2023-02-22T11:37:47;14.70;99.90
10678;DHT22;5387;48.722;9.110;2023-02-22T11:40:16;15.00;99.90
10678;DHT22;5387;48.722;9.110;2023-02-22T11:42:44;14.70;99.90
10678;DHT22;5387;48.722;9.110;2023-02-22T11:45:14;14.30;99.90
10678;DHT22;5387;48.722;9.110;2023-02-22T11:47:50;14.10;99.90
10678;DHT22;5387;48.722;9.110;2023-02-22T11:50:30;14.40;99.90
10678;DHT22;5387;48.722;9.110;2023-02-22T11:53:22;14.60;99.90
10678;DHT22;5387;48.722;9.110;2023-02-22T11:56:10;14.30;99.90
10678;DHT22;5387;48.722;9.110;2023-02-22T11:58:43;13.80;99.90
10678;DHT22;5387;48.722;9.110;2023-02-22T12:01:18;14.00;99.90
10678;DHT22;5387;48.722;9.110;2023-02-22T12:04:04;14.00;99.90
10678;DHT22;5387;48.722;9.110;2023-02-22T12:06:40;13.60;99.90
10678;DHT22;5387;48.722;9.110;2023-02-22T12:09:15;13.70;99.90
10678;DHT22;5387;48.722;9.110;2023-02-22T12:11:57;14.10;99.90
10678;DHT22;5387;48.722;9.110;2023-02-22T12:14:32;14.00;99.90
10678;DHT22;5387;48.722;9.110;2023-02-22T12:17:08;14.00;99.90
10678;DHT22;5387;48.722;9.110;2023-02-22T12:19:41;14.40;99.90
10678;DHT22;5387;48.722;9.110;2023-02-22T12:22:12;14.90;99.90
10678;DHT22;5387;48.722;9.110;2023-02-22T12:24:45;14.90;99.90
10678;DHT22;5387;48.722;9.110;2023-02-22T12:27:17;15.20;99.90
10678;DHT22;5387;48.722;9.110;2023-02-22T12:29:47;15.10;99.90
10678;DHT22;5387;48.722;9.110;2023-02-22T12:32:18;15.10;99.90
10678;DHT22;5387;48.722;9.110;2023-02-22T12:34:54;14.60;99.90
10678;DHT22;5387;48.722;9.110;2023-02-22T12:37:25;14.30;99.90
10678;DHT22;5387;48.722;9.110;2023-02-22T12:39:59;14.10;99.90
10678;DHT22;5387;48.722;9.110;2023-02-22T12:42:43;13.90;99.90
10678;DHT22;5387;48.722;9.110;2023-02-22T12:45:12;13.90;99.90
10678;DHT22;5387;48.722;9.110;2023-02-22T12:47:47;13.90;99.90
10678;DHT22;5387;48.722;9.110;2023-02-22T12:50:19;13.70;99.90
10678;DHT22;5387;48.722;9.110;2023-02-22T12:52:50;13.60;99.90
10678;DHT22;5387;48.722;9.110;2023-02-22T12:55:22;13.60;99.90
10678;DHT22;5387;48.722;9.110;2023-02-22T12:57:54;13.40;99.90
10678;DHT22;5387;48.722;9.110;2023-02-22T13:00:25;13.50;99.90
10678;DHT22;5387;48.722;9.110;2023-02-22T13:02:59;13.70;99.90
10678;DHT22;5387;48.722;9.110;2023-02-22T13:05:28;13.70;99.90
10678;DHT22;5387;48.722;9.110;2023-02-22T13:08:08;14.10;99.90
10678;DHT22;5387;48.722;9.110;2023-02-22T13:10:50;14.00;99.90
10678;DHT22;5387;48.722;9.110;2023-02-22T13:13:24;14.20;99.90
10678;DHT22;5387;48.722;9.110;2023-02-22T13:15:57;14.20;99.90
10678;DHT22;5387;48.722;9.110;2023-02-22T13:18:31;14.10;99.90
10678;DHT22;5387;48.722;9.110;2023-02-22T13:21:03;14.40;99.90
10678;DHT22;5387;48.722;9.110;2023-02-22T13:23:38;14.30;99.90
10678;DHT22;5387;48.722;9.110;2023-02-22T13:26:10;13.70;99.90
10678;DHT22;5387;48.722;9.110;2023-02-22T13:28:43;13.70;99.90
10678;DHT22;5387;48.722;9.110;2023-02-22T13:31:38;13.60;99.90
10678;DHT22;5387;48.722;9.110;2023-02-22T13:34:20;13.70;99.90
10678;DHT22;5387;48.722;9.110;2023-02-22T13:37:18;13.70;99.90
10678;DHT22;5387;48.722;9.110;2023-02-22T13:40:13;13.60;99.90
10678;DHT22;5387;48.722;9.110;2023-02-22T13:43:20;13.70;99.90
10678;DHT22;5387;48.722;9.110;2023-02-22T13:46:02;13.40;99.90
10678;DHT22;5387;48.722;9.110;2023-02-22T13:49:20;13.40;99.90
10678;DHT22;5387;48.722;9.110;2023-02-22T13:51:53;13.20;99.90
10678;DHT22;5387;48.722;9.110;2023-02-22T13:54:25;13.10;99.90
10678;DHT22;5387;48.722;9.110;2023-02-22T13:56:54;13.10;99.90
10678;DHT22;5387;48.722;9.110;2023-02-22T13:59:27;12.90;99.90
10678;DHT22;5387;48.722;9.110;2023-02-22T14:01:55;13.00;99.90
10678;DHT22;5387;48.722;9.110;2023-02-22T14:04:36;13.00;99.90
10678;DHT22;5387;48.722;9.110;2023-02-22T14:10:34;13.10;99.90
10678;DHT22;5387;48.722;9.110;2023-02-22T14:13:03;13.20;99.90
10678;DHT22;5387;48.722;9.110;2023-02-22T14:15:32;13.30;99.90
10678;DHT22;5387;48.722;9.110;2023-02-22T14:18:01;13.40;99.90
10678;DHT22;5387;48.722;9.110;2023-02-22T14:20:29;13.20;99.90
10678;DHT22;5387;48.722;9.110;2023-02-22T14:23:27;13.30;99.90
10678;DHT22;5387;48.722;9.110;2023-02-22T14:25:55;13.30;99.90
10678;DHT22;5387;48.722;9.110;2023-02-22T14:28:37;13.30;99.90
10678;DHT22;5387;48.722;9.110;2023-02-22T14:31:08;13.20;99.90
10678;DHT22;5387;48.722;9.110;2023-02-22T14:34:05;13.20;99.90
10678;DHT22;5387;48.722;9.110;2023-02-22T14:36:38;13.20;99.90
10678;DHT22;5387;48.722;9.110;2023-02-22T14:39:24;13.10;99.90
10678;DHT22;5387;48.722;9.110;2023-02-22T14:41:55;13.20;99.90
10678;DHT22;5387;48.722;9.110;2023-02-22T14:44:31;13.40;99.90
10678;DHT22;5387;48.722;9.110;2023-02-22T14:47:03;13.30;99.90
10678;DHT22;5387;48.722;9.110;2023-02-22T14:49:34;13.20;99.90
10678;DHT22;5387;48.722;9.110;2023-02-22T14:52:06;13.30;99.90
10678;DHT22;5387;48.722;9.110;2023-02-22T14:54:51;13.20;99.90
10678;DHT22;5387;48.722;9.110;2023-02-22T14:57:26;13.30;99.90
10678;DHT22;5387;48.722;9.110;2023-02-22T15:00:03;13.30;99.90
10678;DHT22;5387;48.722;9.110;2023-02-22T15:02:46;13.30;99.90
10678;DHT22;5387;48.722;9.110;2023-02-22T15:05:14;13.40;99.90
10678;DHT22;5387;48.722;9.110;2023-02-22T15:07:52;13.30;99.90
10678;DHT22;5387;48.722;9.110;2023-02-22T15:10:28;13.20;99.90
10678;DHT22;5387;48.722;9.110;2023-02-22T15:12:58;13.30;99.90
10678;DHT22;5387;48.722;9.110;2023-02-22T15:15:38;13.40;99.90
10678;DHT22;5387;48.722;9.110;2023-02-22T15:18:18;13.30;99.90
10678;DHT22;5387;48.722;9.110;2023-02-22T15:20:46;13.30;99.90
10678;DHT22;5387;48.722;9.110;2023-02-22T15:23:20;13.20;99.90
10678;DHT22;5387;48.722;9.110;2023-02-22T15:25:48;13.00;99.90
10678;DHT22;5387;48.722;9.110;2023-02-22T15:28:16;12.90;99.90
10678;DHT22;5387;48.722;9.110;2023-02-22T15:30:44;13.00;99.90
10678;DHT22;5387;48.722;9.110;2023-02-22T15:33:15;12.90;99.90
10678;DHT22;5387;48.722;9.110;2023-02-22T15:35:43;12.80;99.90
10678;DHT22;5387;48.722;9.110;2023-02-22T15:38:25;13.00;99.90
10678;DHT22;5387;48.722;9.110;2023-02-22T15:41:00;13.00;99.90
10678;DHT22;5387;48.722;9.110;2023-02-22T15:43:27;13.10;99.90
10678;DHT22;5387;48.722;9.110;2023-02-22T15:45:57;13.00;99.90
10678;DHT22;5387;48.722;9.110;2023-02-22T15:48:26;13.00;99.90
10678;DHT22;5387;48.722;9.110;2023-02-22T15:51:02;12.90;99.90
10678;DHT22;5387;48.722;9.110;2023-02-22T15:53:39;13.00;99.90
10678;DHT22;5387;48.722;9.110;2023-02-22T15:56:13;12.90;99.90
10678;DHT22;5387;48.722;9.110;2023-02-22T15:58:41;12.80;99.90
10678;DHT22;5387;48.722;9.110;2023-02-22T16:01:12;12.80;99.90
10678;DHT22;5387;48.722;9.110;2023-02-22T16:03:45;12.70;99.90
10678;DHT22;5387;48.722;9.110;2023-02-22T16:06:14;12.70;99.90
10678;DHT22;5387;48.722;9.110;2023-02-22T16:08:47;12.40;99.90
10678;DHT22;5387;48.722;9.110;2023-02-22T16:11:20;12.60;99.90
10678;DHT22;5387;48.722;9.110;2023-02-22T16:13:56;12.60;99.90
10678;DHT22;5387;48.722;9.110;2023-02-22T16:16:28;12.40;99.90
10678;DHT22;5387;48.722;9.110;2023-02-22T16:19:27;12.40;99.90
10678;DHT22;5387;48.722;9.110;2023-02-22T16:21:59;12.40;99.90
10678;DHT22;5387;48.722;9.110;2023-02-22T16:24:29;12.40;99.90